Time;durP1;ratioP1;P1;durP2;ratioP2;P2;SDS_P1;SDS_P2;PMS_P1;PMS_P2;Temp;Humidity;BMP_temperature;BMP_pressure;BME280_temperature;BME280_humidity;BME280_pressure;Samples;Min_cycle;Max_cycle;Signal;HPM_P1;HPM_P2
2023/06/28 00:01:38;;;;;;;;;0.00;0.00;;;;;21.30;45.66;101752.88;5070597;27;45449;-55
2023/06/28 00:04:04;;;;;;;;;0.00;0.00;;;;;21.27;45.77;101751.28;5073476;27;63578;-53
2023/06/28 00:06:31;;;;;;;;;0.00;0.00;;;;;21.27;45.59;101753.13;5076982;27;45545;-55
2023/06/28 00:08:57;;;;;;;;;0.00;0.00;;;;;21.25;45.60;101761.38;5075964;28;45500;-55
2023/06/28 00:11:22;;;;;;;;;0.00;0.00;;;;;21.21;45.60;101751.78;5069589;27;45252;-52
2023/06/28 00:13:48;;;;;;;;;0.00;0.00;;;;;21.19;45.55;101753.75;5078177;27;64592;-56
2023/06/28 00:16:14;;;;;;;;;0.00;0.00;;;;;21.17;45.73;101763.81;5073852;27;46204;-53
2023/06/28 00:18:40;;;;;;;;;0.00;0.00;;;;;21.17;45.87;101754.84;5066737;28;45452;-52
2023/06/28 00:21:05;;;;;;;;;0.00;0.00;;;;;21.13;46.16;101749.69;5076622;28;45727;-54
2023/06/28 00:23:32;;;;;;;;;0.00;0.00;;;;;21.11;45.67;101748.09;5072193;27;64443;-54
2023/06/28 00:25:57;;;;;;;;;0.00;0.00;;;;;21.08;45.86;101754.63;5072559;27;47144;-54
2023/06/28 00:28:23;;;;;;;;;0.00;0.00;;;;;21.04;46.02;101741.44;5072886;28;45390;-54
2023/06/28 00:30:48;;;;;;;;;0.00;0.00;;;;;20.99;45.92;101739.97;5074207;27;46262;-54
2023/06/28 00:33:19;;;;;;;;;0.00;0.00;;;;;20.96;45.82;101745.63;5076216;27;62508;-56
2023/06/28 00:35:45;;;;;;;;;0.00;0.00;;;;;20.94;46.27;101744.88;5062517;27;45475;-54
2023/06/28 00:38:10;;;;;;;;;0.00;0.00;;;;;20.90;46.12;101740.72;5075138;28;45456;-54
2023/06/28 00:40:36;;;;;;;;;0.00;0.00;;;;;20.90;46.38;101742.53;5065687;27;45287;-55
2023/06/28 00:43:01;;;;;;;;;0.00;0.00;;;;;20.89;46.15;101738.97;5075916;27;66045;-55
2023/06/28 00:45:26;;;;;;;;;0.00;0.00;;;;;20.89;46.46;101743.53;5077718;27;63559;-55
2023/06/28 00:47:52;;;;;;;;;0.00;0.00;;;;;20.88;46.63;101744.50;5079772;27;53417;-55
2023/06/28 00:50:18;;;;;;;;;0.00;0.00;;;;;20.87;46.57;101738.25;5087972;27;59897;-55
2023/06/28 00:52:44;;;;;;;;;0.00;0.00;;;;;20.90;46.23;101737.13;5080719;27;45520;-54
2023/06/28 00:55:10;;;;;;;;;0.00;0.00;;;;;20.90;46.45;101735.31;5074872;28;45642;-55
2023/06/28 00:57:36;;;;;;;;;0.00;0.00;;;;;20.92;46.55;101736.03;5071510;28;45423;-55
2023/06/28 01:00:01;;;;;;;;;0.00;0.00;;;;;20.91;46.49;101725.34;5081202;28;45745;-55
2023/06/28 01:02:29;;;;;;;;;0.00;0.00;;;;;20.90;46.82;101727.19;5072416;27;45415;-55
2023/06/28 01:04:57;;;;;;;;;0.00;0.00;;;;;20.93;46.87;101728.78;5078536;27;47199;-55
2023/06/28 01:07:24;;;;;;;;;0.00;0.00;;;;;20.93;45.99;101724.22;5079265;27;45453;-55
2023/06/28 01:09:50;;;;;;;;;0.00;0.00;;;;;20.94;46.47;101722.41;5093610;27;45795;-55
2023/06/28 01:12:15;;;;;;;;;0.00;0.00;;;;;20.93;46.63;101732.34;5080193;28;60303;-54
2023/06/28 01:14:40;;;;;;;;;0.00;0.00;;;;;20.93;47.27;101732.34;5079436;27;69952;-55
2023/06/28 01:17:06;;;;;;;;;0.00;0.00;;;;;20.94;46.35;101736.78;5071028;27;71167;-54
2023/06/28 01:19:32;;;;;;;;;0.00;0.00;;;;;20.94;47.06;101731.38;5076918;28;45781;-55
2023/06/28 01:22:02;;;;;;;;;0.00;0.00;;;;;20.93;46.74;101732.34;5069428;27;45577;-55
2023/06/28 01:24:28;;;;;;;;;0.00;0.00;;;;;20.91;46.61;101728.91;5086600;27;46150;-55
2023/06/28 01:26:54;;;;;;;;;0.00;0.00;;;;;20.90;46.47;101732.59;5104696;27;45354;-55
2023/06/28 01:29:23;;;;;;;;;0.00;0.00;;;;;20.90;46.82;101729.91;5096574;27;45416;-55
2023/06/28 01:31:52;;;;;;;;;0.00;0.00;;;;;20.89;47.23;101725.47;5076276;27;45492;-55
2023/06/28 01:34:18;;;;;;;;;0.00;0.00;;;;;20.89;47.33;101725.47;5071113;27;45473;-55
2023/06/28 01:36:46;;;;;;;;;0.00;0.00;;;;;20.89;47.12;101724.63;5077940;27;45556;-55
2023/06/28 01:39:13;;;;;;;;;0.00;0.00;;;;;20.88;46.70;101720.19;5077563;27;45425;-54
2023/06/28 01:41:39;;;;;;;;;0.00;0.00;;;;;20.87;46.96;101721.16;5078939;27;45604;-54
2023/06/28 01:44:05;;;;;;;;;0.00;0.00;;;;;20.86;46.76;101725.72;5079108;27;46011;-53
2023/06/28 01:46:30;;;;;;;;;0.00;0.00;;;;;20.84;47.53;101724.97;5073158;27;45290;-53
2023/06/28 01:48:56;;;;;;;;;0.00;0.00;;;;;20.82;47.39;101718.84;5075817;27;50583;-54
2023/06/28 01:51:21;;;;;;;;;0.00;0.00;;;;;20.81;47.32;101712.56;5073542;28;45350;-54
2023/06/28 01:53:47;;;;;;;;;0.00;0.00;;;;;20.80;47.03;101716.22;5076142;27;72148;-54
2023/06/28 01:56:12;;;;;;;;;0.00;0.00;;;;;20.77;47.50;101716.47;5077633;27;45570;-54
2023/06/28 01:58:37;;;;;;;;;0.00;0.00;;;;;20.74;47.00;101716.75;5076598;27;45277;-54
2023/06/28 02:01:03;;;;;;;;;0.00;0.00;;;;;20.72;47.65;101717.84;5075795;27;66001;-54
2023/06/28 02:03:28;;;;;;;;;0.00;0.00;;;;;20.71;47.30;101721.50;5070604;27;65375;-54
2023/06/28 02:05:53;;;;;;;;;0.00;0.00;;;;;20.67;47.86;101719.00;5076361;27;45457;-55
2023/06/28 02:08:19;;;;;;;;;0.00;0.00;;;;;20.65;47.95;101718.28;5073392;28;65331;-55
2023/06/28 02:10:45;;;;;;;;;0.00;0.00;;;;;20.63;47.91;101714.81;5074709;27;45381;-54
2023/06/28 02:13:10;;;;;;;;;0.00;0.00;;;;;20.64;47.75;101715.72;5078083;27;50962;-55
2023/06/28 02:15:35;;;;;;;;;0.00;0.00;;;;;20.61;47.95;101718.63;5072838;28;45375;-53
2023/06/28 02:18:01;;;;;;;;;0.00;0.00;;;;;20.61;47.32;101718.63;5077135;27;45490;-55
2023/06/28 02:20:26;;;;;;;;;0.00;0.00;;;;;20.59;47.44;101710.66;5076867;27;45586;-54
2023/06/28 02:22:52;;;;;;;;;0.00;0.00;;;;;20.57;47.71;101704.53;5076261;27;46204;-53
2023/06/28 02:25:17;;;;;;;;;0.00;0.00;;;;;20.57;47.67;101703.63;5067611;27;45731;-54
2023/06/28 02:27:43;;;;;;;;;0.00;0.00;;;;;20.55;47.69;101703.75;5075977;27;65142;-54
2023/06/28 02:30:08;;;;;;;;;0.00;0.00;;;;;20.53;47.72;101710.28;5079028;27;45717;-54
2023/06/28 02:32:34;;;;;;;;;0.00;0.00;;;;;20.51;48.35;101699.59;5075729;27;45481;-53
2023/06/28 02:34:59;;;;;;;;;0.00;0.00;;;;;20.49;48.37;101706.94;5073208;27;45465;-54
2023/06/28 02:37:25;;;;;;;;;0.00;0.00;;;;;20.47;48.40;101707.06;5076137;27;45823;-53
2023/06/28 02:39:50;;;;;;;;;0.00;0.00;;;;;20.46;48.60;101702.63;5078585;27;45726;-54
2023/06/28 02:42:16;;;;;;;;;0.00;0.00;;;;;20.44;48.14;101707.31;5077108;28;52241;-53
2023/06/28 02:44:41;;;;;;;;;0.00;0.00;;;;;20.41;48.14;101706.69;5078246;27;45377;-53
2023/06/28 02:47:07;;;;;;;;;0.00;0.00;;;;;20.40;48.54;101702.25;5078514;27;45662;-53
2023/06/28 02:49:33;;;;;;;;;0.00;0.00;;;;;20.39;47.86;101697.81;5068610;27;68873;-54
2023/06/28 02:51:58;;;;;;;;;0.00;0.00;;;;;20.36;48.27;101698.94;5094272;27;46241;-54
2023/06/28 02:54:23;;;;;;;;;0.00;0.00;;;;;20.36;48.36;101706.19;5072153;27;62454;-54
2023/06/28 02:56:49;;;;;;;;;0.00;0.00;;;;;20.33;48.22;101701.88;5076490;27;66716;-53
2023/06/28 02:59:14;;;;;;;;;0.00;0.00;;;;;20.32;48.60;101700.16;5074947;27;67128;-55
2023/06/28 03:01:39;;;;;;;;;0.00;0.00;;;;;20.31;48.57;101702.00;5072996;27;55716;-54
2023/06/28 03:04:07;;;;;;;;;0.00;0.00;;;;;20.29;48.00;101703.94;5074945;27;49746;-54
2023/06/28 03:06:32;;;;;;;;;0.00;0.00;;;;;20.26;48.57;101698.78;5076951;27;45508;-54
2023/06/28 03:08:57;;;;;;;;;0.00;0.00;;;;;20.26;48.50;101704.19;5072489;27;45457;-54
2023/06/28 03:11:23;;;;;;;;;0.00;0.00;;;;;20.25;48.56;101699.75;5069444;28;45732;-53
2023/06/28 03:13:48;;;;;;;;;0.00;0.00;;;;;20.27;48.77;101705.91;5078119;27;45564;-54
2023/06/28 03:16:15;;;;;;;;;0.00;0.00;;;;;20.27;48.62;101703.22;5072097;27;49831;-54
2023/06/28 03:18:40;;;;;;;;;0.00;0.00;;;;;20.29;48.17;101695.84;5067731;27;45473;-54
2023/06/28 03:21:06;;;;;;;;;0.00;0.00;;;;;20.28;48.68;101704.91;5073774;27;72131;-54
2023/06/28 03:23:31;;;;;;;;;0.00;0.00;;;;;20.27;48.25;101700.53;5075451;27;65249;-54
2023/06/28 03:25:57;;;;;;;;;0.00;0.00;;;;;20.26;48.55;101701.50;5072343;27;45612;-53
2023/06/28 03:28:22;;;;;;;;;0.00;0.00;;;;;20.27;48.23;101696.94;5074323;27;45473;-54
2023/06/28 03:30:47;;;;;;;;;0.00;0.00;;;;;20.26;48.73;101700.63;5075145;27;63136;-55
2023/06/28 03:33:13;;;;;;;;;0.00;0.00;;;;;20.25;48.27;101702.47;5074390;27;45368;-54
2023/06/28 03:35:38;;;;;;;;;0.00;0.00;;;;;20.22;48.26;101704.53;5071260;28;65688;-54
2023/06/28 03:38:03;;;;;;;;;0.00;0.00;;;;;20.19;48.68;101702.09;5070556;27;45435;-54
2023/06/28 03:40:29;;;;;;;;;0.00;0.00;;;;;20.17;48.13;101697.66;5073699;28;69501;-54
2023/06/28 03:42:54;;;;;;;;;0.00;0.00;;;;;20.17;48.63;101699.50;5074119;27;45445;-54
2023/06/28 03:45:20;;;;;;;;;0.00;0.00;;;;;20.16;48.70;101700.47;5076368;27;45375;-54
2023/06/28 03:47:46;;;;;;;;;0.00;0.00;;;;;20.13;48.16;101703.44;5076305;27;45545;-53
2023/06/28 03:50:11;;;;;;;;;0.00;0.00;;;;;20.12;48.91;101697.16;5076691;27;46057;-53
2023/06/28 03:52:36;;;;;;;;;0.00;0.00;;;;;20.09;48.36;101691.09;5078374;28;45431;-54
2023/06/28 03:55:03;;;;;;;;;0.00;0.00;;;;;20.06;49.01;101694.06;5079821;27;63758;-54
2023/06/28 03:57:28;;;;;;;;;0.00;0.00;;;;;20.03;49.07;101695.16;5077463;28;45448;-53
2023/06/28 03:59:54;;;;;;;;;0.00;0.00;;;;;20.00;49.24;101695.41;5072148;27;46271;-53
2023/06/28 04:02:20;;;;;;;;;0.00;0.00;;;;;19.97;49.04;101692.91;5068710;27;46283;-54
2023/06/28 04:04:45;;;;;;;;;0.00;0.00;;;;;19.95;49.19;101690.31;5090079;27;45769;-54
2023/06/28 04:07:11;;;;;;;;;0.00;0.00;;;;;19.97;49.57;101693.78;5091076;27;45244;-54
2023/06/28 04:09:37;;;;;;;;;0.00;0.00;;;;;19.97;49.45;101687.50;5079343;27;46291;-55
2023/06/28 04:12:02;;;;;;;;;0.00;0.00;;;;;19.95;49.29;101684.94;5069149;27;45292;-54
2023/06/28 04:14:28;;;;;;;;;0.00;0.00;;;;;19.96;49.58;101685.81;5075907;28;45350;-54
2023/06/28 04:16:53;;;;;;;;;0.00;0.00;;;;;19.95;49.28;101687.63;5069722;27;45848;-54
2023/06/28 04:19:19;;;;;;;;;0.00;0.00;;;;;19.95;49.65;101687.63;5073337;28;71247;-54
2023/06/28 04:21:44;;;;;;;;;0.00;0.00;;;;;19.96;49.45;101694.75;5077787;27;45545;-54
2023/06/28 04:24:10;;;;;;;;;0.00;0.00;;;;;19.98;49.97;101690.09;5075850;27;45400;-52
2023/06/28 04:26:35;;;;;;;;;0.00;0.00;;;;;20.00;49.59;101701.63;5076273;28;45611;-54
2023/06/28 04:29:01;;;;;;;;;0.00;0.00;;;;;20.02;49.91;101695.28;5082127;27;46486;-56
2023/06/28 04:31:27;;;;;;;;;0.00;0.00;;;;;20.06;50.01;101697.59;5071893;27;52948;-54
2023/06/28 04:33:55;;;;;;;;;0.00;0.00;;;;;20.10;49.46;101693.72;5073580;28;45644;-54
2023/06/28 04:36:21;;;;;;;;;0.00;0.00;;;;;20.16;49.37;101692.38;5076292;27;45173;-54
2023/06/28 04:38:52;;;;;;;;;0.00;0.00;;;;;20.22;49.21;101689.22;5074822;27;46483;-54
2023/06/28 04:41:18;;;;;;;;;0.00;0.00;;;;;20.28;48.43;101698.66;5078565;27;45452;-54
2023/06/28 04:43:43;;;;;;;;;0.00;0.00;;;;;20.36;48.53;101698.94;5076443;28;45407;-54
2023/06/28 04:46:11;;;;;;;;;0.00;0.00;;;;;20.44;48.43;101690.22;5080254;27;45399;-54
2023/06/28 04:48:37;;;;;;;;;0.00;0.00;;;;;20.50;48.22;101687.06;5073845;27;46176;-54
2023/06/28 04:51:02;;;;;;;;;0.00;0.00;;;;;20.56;48.34;101691.97;5075383;27;45268;-54
2023/06/28 04:53:28;;;;;;;;;0.00;0.00;;;;;20.65;48.04;101693.97;5077130;27;45580;-56
2023/06/28 04:55:53;;;;;;;;;0.00;0.00;;;;;20.74;46.90;101691.53;5075205;27;64572;-54
2023/06/28 04:58:18;;;;;;;;;0.00;0.00;;;;;20.81;47.10;101687.38;5069278;28;66522;-54
2023/06/28 05:00:45;;;;;;;;;0.00;0.00;;;;;20.87;47.29;101688.72;5073868;27;45579;-55
2023/06/28 05:03:10;;;;;;;;;0.00;0.00;;;;;20.95;47.19;101688.94;5082656;27;45519;-54
2023/06/28 05:05:36;;;;;;;;;0.00;0.00;;;;;21.01;46.40;101691.16;5079427;27;63953;-54
2023/06/28 05:08:03;;;;;;;;;0.00;0.00;;;;;21.07;46.21;101692.53;5076183;27;48264;-54
2023/06/28 05:10:28;;;;;;;;;0.00;0.00;;;;;21.11;46.43;101694.00;5091338;27;45432;-54
2023/06/28 05:12:54;;;;;;;;;0.00;0.00;;;;;21.15;45.48;101690.91;5076720;28;57582;-54
2023/06/28 05:15:19;;;;;;;;;0.00;0.00;;;;;21.19;44.71;101687.97;5069848;27;45424;-54
2023/06/28 05:17:45;;;;;;;;;0.00;0.00;;;;;21.21;44.76;101691.41;5069368;28;46827;-54
2023/06/28 05:20:10;;;;;;;;;0.00;0.00;;;;;21.25;44.82;101684.75;5077997;27;45296;-53
2023/06/28 05:22:51;;;;;;;;;0.00;0.00;;;;;21.29;45.17;101689.78;5101848;27;45687;-54
2023/06/28 05:25:16;;;;;;;;;0.00;0.00;;;;;21.32;45.39;101683.28;5094852;27;45424;-56
2023/06/28 05:27:42;;;;;;;;;0.00;0.00;;;;;21.40;45.06;101686.19;5070776;28;46411;-55
2023/06/28 05:30:08;;;;;;;;;0.00;0.00;;;;;21.45;45.16;101683.13;5075335;28;45489;-54
2023/06/28 05:32:34;;;;;;;;;0.00;0.00;;;;;21.52;45.43;101686.19;5079059;28;45414;-54
2023/06/28 05:35:02;;;;;;;;;0.00;0.00;;;;;21.58;45.36;101667.63;5081061;28;45600;-55
2023/06/28 05:37:27;;;;;;;;;0.00;0.00;;;;;21.66;44.80;101675.09;5078735;27;46052;-55
2023/06/28 05:39:52;;;;;;;;;0.00;0.00;;;;;21.71;44.87;101669.31;5080930;27;45389;-55
2023/06/28 05:42:18;;;;;;;;;0.00;0.00;;;;;21.79;45.15;101666.81;5079951;27;45401;-55
2023/06/28 05:44:43;;;;;;;;;0.00;0.00;;;;;21.89;44.90;101672.28;5081147;27;45399;-55
2023/06/28 05:47:08;;;;;;;;;0.00;0.00;;;;;22.07;45.28;101669.88;5078611;28;62805;-55
2023/06/28 05:49:37;;;;;;;;;0.00;0.00;;;;;22.60;44.77;101660.84;5085673;27;45462;-55
2023/06/28 05:52:04;;;;;;;;;0.00;0.00;;;;;22.91;44.29;101675.25;5062812;27;45647;-55
2023/06/28 05:54:29;;;;;;;;;0.00;0.00;;;;;22.93;43.92;101670.56;5072910;27;45387;-54
2023/06/28 05:56:55;;;;;;;;;0.00;0.00;;;;;22.88;43.97;101667.41;5079243;27;64356;-55
2023/06/28 05:59:20;;;;;;;;;0.00;0.00;;;;;22.87;43.92;101670.25;5078296;28;45693;-54
2023/06/28 06:01:45;;;;;;;;;0.00;0.00;;;;;22.82;43.82;101667.94;5078623;27;45356;-54
2023/06/28 06:04:11;;;;;;;;;0.00;0.00;;;;;22.83;43.82;101674.19;5079011;27;56952;-55
2023/06/28 06:06:37;;;;;;;;;0.00;0.00;;;;;22.82;43.61;101670.66;5078754;28;46864;-55
2023/06/28 06:09:02;;;;;;;;;0.00;0.00;;;;;22.87;43.80;101679.22;5072702;27;45520;-54
2023/06/28 06:11:28;;;;;;;;;0.00;0.00;;;;;22.97;43.73;101679.25;5090989;27;63364;-55
2023/06/28 06:13:53;;;;;;;;;0.00;0.00;;;;;23.02;43.51;101682.41;5077419;28;45512;-57
2023/06/28 06:16:18;;;;;;;;;0.00;0.00;;;;;23.06;43.35;101680.28;5073045;27;62817;-55
2023/06/28 06:18:44;;;;;;;;;0.00;0.00;;;;;23.10;43.77;101679.00;5080849;27;45510;-54
2023/06/28 06:21:09;;;;;;;;;0.00;0.00;;;;;23.11;43.69;101673.47;5070047;27;45672;-54
2023/06/28 06:23:35;;;;;;;;;0.00;0.00;;;;;23.18;43.57;101676.53;5075587;27;45460;-54
2023/06/28 06:26:00;;;;;;;;;0.00;0.00;;;;;23.26;43.41;101684.81;5089792;27;73506;-54
2023/06/28 06:28:25;;;;;;;;;0.00;0.00;;;;;23.34;43.33;101683.28;5070677;27;45538;-54
2023/06/28 06:30:51;;;;;;;;;0.00;0.00;;;;;23.43;43.23;101677.84;5061079;28;46067;-55
2023/06/28 06:33:16;;;;;;;;;0.00;0.00;;;;;23.52;43.22;101681.59;5078693;28;45394;-54
2023/06/28 06:35:41;;;;;;;;;0.00;0.00;;;;;23.63;42.97;101675.16;5078366;27;52554;-55
2023/06/28 06:38:07;;;;;;;;;0.00;0.00;;;;;24.42;42.81;101674.16;5079144;27;62421;-55
2023/06/28 06:40:33;;;;;;;;;0.00;0.00;;;;;26.68;40.80;101676.22;5079516;27;45639;-55
2023/06/28 06:42:58;;;;;;;;;0.00;0.00;;;;;29.08;37.65;101673.72;5079692;27;45494;-55
2023/06/28 06:45:24;;;;;;;;;0.00;0.00;;;;;31.17;34.53;101674.34;5078111;27;65686;-55
2023/06/28 06:47:50;;;;;;;;;0.00;0.00;;;;;32.91;32.39;101672.31;5076268;27;68419;-56
2023/06/28 06:50:17;;;;;;;;;0.00;0.00;;;;;34.30;30.50;101678.31;5080030;27;45482;-55
2023/06/28 06:52:43;;;;;;;;;0.00;0.00;;;;;35.51;28.68;101670.53;5070805;27;45551;-57
2023/06/28 06:55:08;;;;;;;;;0.00;0.00;;;;;36.57;26.82;101687.34;5080313;28;45393;-55
2023/06/28 06:57:34;;;;;;;;;0.00;0.00;;;;;37.46;26.41;101683.28;5079517;27;45489;-55
2023/06/28 06:59:59;;;;;;;;;0.00;0.00;;;;;38.29;25.16;101691.81;5079379;27;63155;-56
2023/06/28 07:02:24;;;;;;;;;0.00;0.00;;;;;39.03;23.97;101698.72;5077647;27;65670;-55
2023/06/28 07:04:50;;;;;;;;;0.00;0.00;;;;;39.61;23.14;101688.47;5083607;27;45462;-56
2023/06/28 07:07:15;;;;;;;;;0.00;0.00;;;;;40.14;22.82;101694.69;5066058;27;45269;-56
2023/06/28 07:09:41;;;;;;;;;0.00;0.00;;;;;40.61;21.21;101693.47;5078670;28;45601;-56
2023/06/28 07:12:07;;;;;;;;;0.00;0.00;;;;;40.96;20.35;101694.19;5075044;27;65544;-57
2023/06/28 07:14:32;;;;;;;;;0.00;0.00;;;;;41.12;20.91;101689.63;5078295;28;46359;-56
2023/06/28 07:16:57;;;;;;;;;0.00;0.00;;;;;41.44;20.38;101688.88;5077217;27;68337;-57
2023/06/28 07:19:23;;;;;;;;;0.00;0.00;;;;;41.81;19.52;101690.88;5079885;27;54217;-57
2023/06/28 07:21:48;;;;;;;;;0.00;0.00;;;;;41.94;18.86;101689.63;5089650;27;57478;-57
2023/06/28 07:24:13;;;;;;;;;0.00;0.00;;;;;41.96;17.98;101691.03;5076859;28;72252;-57
2023/06/28 07:26:39;;;;;;;;;0.00;0.00;;;;;42.05;19.42;101691.38;5076355;27;45377;-57
2023/06/28 07:29:04;;;;;;;;;0.00;0.00;;;;;42.33;19.20;101703.31;5074641;28;65364;-57
2023/06/28 07:31:29;;;;;;;;;0.00;0.00;;;;;42.68;19.24;101695.44;5069648;27;45734;-61
2023/06/28 07:33:55;;;;;;;;;0.00;0.00;;;;;42.98;18.28;101697.53;5073411;28;45379;-57
2023/06/28 07:36:20;;;;;;;;;0.00;0.00;;;;;43.38;18.18;101704.38;5072237;27;58471;-57
2023/06/28 07:38:46;;;;;;;;;0.00;0.00;;;;;43.60;17.85;101700.50;5073305;28;45661;-57
2023/06/28 07:41:12;;;;;;;;;0.00;0.00;;;;;43.84;16.90;101700.78;5060689;28;45604;-57
2023/06/28 07:43:37;;;;;;;;;0.00;0.00;;;;;44.07;17.67;101692.97;5071757;27;67350;-57
2023/06/28 07:46:03;;;;;;;;;0.00;0.00;;;;;44.42;17.30;101694.88;5074186;28;55652;-57
2023/06/28 07:48:29;;;;;;;;;0.00;0.00;;;;;44.69;16.54;101696.44;5077137;27;45515;-57
2023/06/28 07:50:55;;;;;;;;;0.00;0.00;;;;;44.94;16.66;101691.84;5076239;27;45514;-57
2023/06/28 07:53:20;;;;;;;;;0.00;0.00;;;;;45.40;15.98;101694.41;5073832;27;46582;-57
2023/06/28 07:55:46;;;;;;;;;0.00;0.00;;;;;45.81;16.03;101684.00;5073964;27;45567;-57
2023/06/28 07:58:11;;;;;;;;;0.00;0.00;;;;;46.04;16.57;101686.03;5068729;27;45729;-57
2023/06/28 08:00:36;;;;;;;;;0.00;0.00;;;;;46.26;15.62;101678.22;5076509;27;63638;-58
2023/06/28 08:03:02;;;;;;;;;0.00;0.00;;;;;46.42;14.64;101681.72;5077617;27;46390;-58
2023/06/28 08:05:29;;;;;;;;;0.00;0.00;;;;;46.31;14.40;101673.44;5071541;27;45480;-58
2023/06/28 08:07:54;;;;;;;;;0.00;0.00;;;;;46.36;14.93;101679.00;5072072;27;45331;-59
2023/06/28 08:10:20;;;;;;;;;0.00;0.00;;;;;46.35;14.55;101684.88;5071235;28;45422;-59
2023/06/28 08:12:45;;;;;;;;;0.00;0.00;;;;;46.65;15.64;101686.50;5070567;28;47374;-59
2023/06/28 08:15:11;;;;;;;;;0.00;0.00;;;;;47.17;14.81;101686.69;5076387;27;48086;-59
2023/06/28 08:17:36;;;;;;;;;0.00;0.00;;;;;47.56;14.09;101681.84;5074135;28;45916;-59
2023/06/28 08:20:01;;;;;;;;;0.00;0.00;;;;;48.02;14.31;101678.25;5067480;28;46509;-59
2023/06/28 08:22:27;;;;;;;;;0.00;0.00;;;;;48.28;13.62;101676.91;5070662;27;69652;-58
2023/06/28 08:24:52;;;;;;;;;0.00;0.00;;;;;48.34;12.69;101673.69;5072230;27;45900;-58
2023/06/28 08:27:17;;;;;;;;;0.00;0.00;;;;;48.29;13.19;101679.41;5071041;27;46113;-58
2023/06/28 08:29:43;;;;;;;;;0.00;0.00;;;;;48.43;13.94;101681.41;5075833;27;69844;-59
2023/06/28 08:32:09;;;;;;;;;0.00;0.00;;;;;48.73;13.29;101677.13;5068656;27;72695;-58
2023/06/28 08:34:34;;;;;;;;;0.00;0.00;;;;;48.97;12.21;101670.41;5083101;27;45602;-58
2023/06/28 08:37:00;;;;;;;;;0.00;0.00;;;;;49.02;13.35;101673.09;5068759;27;45993;-58
2023/06/28 08:39:25;;;;;;;;;0.00;0.00;;;;;49.16;12.66;101665.41;5067699;28;45446;-59
2023/06/28 08:41:52;;;;;;;;;0.00;0.00;;;;;49.30;12.21;101670.22;5090629;27;70086;-58
2023/06/28 08:44:19;;;;;;;;;0.00;0.00;;;;;49.46;12.95;101665.00;5064803;28;45426;-58
2023/06/28 08:46:46;;;;;;;;;0.00;0.00;;;;;49.65;12.44;101667.63;5066285;28;45486;-58
2023/06/28 08:49:12;;;;;;;;;0.00;0.00;;;;;49.65;12.27;101668.50;5070120;28;45552;-58
2023/06/28 08:51:38;;;;;;;;;0.00;0.00;;;;;49.84;12.49;101667.41;5080822;27;45506;-58
2023/06/28 08:54:03;;;;;;;;;0.00;0.00;;;;;49.87;12.21;101661.09;5071485;28;56133;-58
2023/06/28 08:56:29;;;;;;;;;0.00;0.00;;;;;49.70;12.19;101667.50;5074979;28;45427;-58
2023/06/28 08:58:56;;;;;;;;;0.00;0.00;;;;;49.55;11.55;101662.25;5072058;27;45537;-59
2023/06/28 09:01:22;;;;;;;;;0.00;0.00;;;;;49.55;11.66;101665.06;5065334;28;47350;-59
2023/06/28 09:03:47;;;;;;;;;0.00;0.00;;;;;49.54;12.71;101667.06;5061332;27;45513;-58
2023/06/28 09:06:13;;;;;;;;;0.00;0.00;;;;;49.62;12.66;101666.25;5078584;27;60467;-58
2023/06/28 09:08:39;;;;;;;;;0.00;0.00;;;;;49.76;12.45;101674.69;5081041;27;45548;-59
2023/06/28 09:11:04;;;;;;;;;0.00;0.00;;;;;50.01;12.05;101666.69;5070730;28;45369;-59
2023/06/28 09:13:30;;;;;;;;;0.00;0.00;;;;;50.19;11.48;101667.59;5069423;28;45508;-59
2023/06/28 09:15:56;;;;;;;;;0.00;0.00;;;;;50.29;12.20;101661.66;5061791;28;59162;-59
2023/06/28 09:18:22;;;;;;;;;0.00;0.00;;;;;50.28;11.78;101664.81;5064034;28;45565;-59
2023/06/28 09:20:51;;;;;;;;;0.00;0.00;;;;;50.34;11.10;101660.66;5072074;28;45937;-59
2023/06/28 09:23:25;;;;;;;;;0.00;0.00;;;;;50.13;11.97;101660.41;5078636;27;45420;-60
2023/06/28 09:25:51;;;;;;;;;0.00;0.00;;;;;49.84;11.01;101653.28;5070290;27;45712;-60
2023/06/28 09:28:16;;;;;;;;;0.00;0.00;;;;;49.59;11.51;101654.78;5076016;27;45724;-59
2023/06/28 09:30:42;;;;;;;;;0.00;0.00;;;;;49.61;11.66;101655.28;5076077;27;46134;-59
2023/06/28 09:33:07;;;;;;;;;0.00;0.00;;;;;49.45;11.47;101649.22;5079354;27;66348;-58
2023/06/28 09:35:36;;;;;;;;;0.00;0.00;;;;;48.70;11.68;101652.38;5075008;28;45688;-59
2023/06/28 09:38:06;;;;;;;;;0.00;0.00;;;;;47.91;12.13;101647.75;5072586;27;45397;-60
2023/06/28 09:40:35;;;;;;;;;0.00;0.00;;;;;48.04;12.72;101646.91;5075228;27;46263;-59
2023/06/28 09:43:00;;;;;;;;;0.00;0.00;;;;;48.12;13.00;101640.53;5080989;27;46231;-59
2023/06/28 09:45:32;;;;;;;;;0.00;0.00;;;;;48.27;12.14;101635.78;5077685;27;45319;-59
2023/06/28 09:48:03;;;;;;;;;0.00;0.00;;;;;48.39;13.01;101630.44;5071463;28;45424;-58
2023/06/28 09:50:39;;;;;;;;;0.00;0.00;;;;;48.56;12.82;101629.00;5077976;27;46327;-58
2023/06/28 09:53:17;;;;;;;;;0.00;0.00;;;;;48.64;12.74;101628.25;5081594;27;45281;-59
2023/06/28 09:55:47;;;;;;;;;0.00;0.00;;;;;48.73;11.75;101623.53;5077779;28;45387;-60
2023/06/28 09:58:17;;;;;;;;;0.00;0.00;;;;;48.47;11.95;101626.06;5091763;27;45531;-59
2023/06/28 10:00:44;;;;;;;;;0.00;0.00;;;;;48.28;12.38;101623.34;5077538;28;46682;-59
2023/06/28 10:03:11;;;;;;;;;0.00;0.00;;;;;48.10;12.78;101614.69;5070055;27;45578;-59
2023/06/28 10:05:38;;;;;;;;;0.00;0.00;;;;;47.85;12.83;101616.84;5070664;28;45750;-59
2023/06/28 10:08:07;;;;;;;;;0.00;0.00;;;;;47.78;13.13;101605.13;5048120;28;45509;-59
2023/06/28 10:10:37;;;;;;;;;0.00;0.00;;;;;47.69;12.66;101618.25;5079255;28;47312;-60
2023/06/28 10:13:03;;;;;;;;;0.00;0.00;;;;;47.64;13.05;101612.72;5073255;27;45433;-59
2023/06/28 10:15:35;;;;;;;;;0.00;0.00;;;;;47.52;13.04;101605.63;5079969;27;45363;-59
2023/06/28 10:18:01;;;;;;;;;0.00;0.00;;;;;47.51;13.05;101601.13;5076614;27;46719;-59
2023/06/28 10:20:26;;;;;;;;;0.00;0.00;;;;;47.47;13.48;101600.06;5094169;27;47219;-59
2023/06/28 10:22:52;;;;;;;;;0.00;0.00;;;;;47.33;13.18;101599.16;5078903;28;45382;-59
2023/06/28 10:25:18;;;;;;;;;0.00;0.00;;;;;47.02;13.28;101605.28;5078362;28;45616;-58
2023/06/28 10:27:44;;;;;;;;;0.00;0.00;;;;;46.71;13.66;101600.09;5080513;28;45405;-57
2023/06/28 10:30:10;;;;;;;;;0.00;0.00;;;;;46.16;13.29;101601.31;5075045;28;46718;-57
2023/06/28 10:32:36;;;;;;;;;0.00;0.00;;;;;45.19;13.83;101595.50;5075144;27;45622;-58
2023/06/28 10:35:02;;;;;;;;;0.00;0.00;;;;;44.89;14.12;101591.75;5077616;27;45424;-59
2023/06/28 10:37:28;;;;;;;;;0.00;0.00;;;;;44.98;14.01;101593.94;5077170;27;45635;-58
2023/06/28 10:39:53;;;;;;;;;0.00;0.00;;;;;45.05;14.01;101592.47;5057782;28;47775;-58
2023/06/28 10:42:19;;;;;;;;;0.00;0.00;;;;;45.01;14.16;101598.97;5072897;27;45415;-58
2023/06/28 10:44:53;;;;;;;;;0.00;0.00;;;;;44.98;15.05;101585.53;5081169;27;45439;-58
2023/06/28 10:47:18;;;;;;;;;10.75;10.25;;;;;44.99;15.18;101585.22;5077218;28;45414;-59
2023/06/28 10:50:04;;;;;;;;;12.33;12.33;;;;;44.99;14.34;101585.22;5071665;27;71768;-58
2023/06/28 10:52:29;;;;;;;;;12.67;11.00;;;;;44.91;14.24;101583.88;5071634;27;45542;-58
2023/06/28 10:54:54;;;;;;;;;12.33;11.33;;;;;44.71;14.73;101590.47;5067396;27;60655;-58
2023/06/28 10:57:33;;;;;;;;;10.00;10.00;;;;;44.60;14.79;101584.06;5066269;27;45596;-61
2023/06/28 10:59:59;;;;;;;;;10.67;10.00;;;;;44.27;14.65;101585.56;5071692;28;48180;-60
2023/06/28 11:03:13;;;;;;;;;10.00;10.00;;;;;43.97;15.65;101576.16;5075128;27;46037;-58
2023/06/28 11:05:55;;;;;;;;;13.00;13.00;;;;;44.01;15.10;101580.06;5074891;28;45173;-58
2023/06/28 11:08:34;;;;;;;;;15.67;14.67;;;;;43.86;15.77;101574.47;5072756;28;45499;-61
2023/06/28 11:11:01;;;;;;;;;12.00;12.00;;;;;43.55;15.47;101564.16;5072732;28;45501;-59
2023/06/28 11:13:39;;;;;;;;;14.00;13.67;;;;;43.43;15.65;101569.19;5068305;28;45409;-58
2023/06/28 11:16:12;;;;;;;;;16.00;14.67;;;;;43.32;16.10;101557.16;5071165;27;45850;-58
2023/06/28 11:18:38;;;;;;;;;18.00;14.00;;;;;43.20;15.77;101563.03;5076364;28;45606;-58
2023/06/28 11:21:04;;;;;;;;;15.00;15.00;;;;;43.07;15.79;101569.16;5076024;28;56142;-58